Time;durP1;ratioP1;P1;durP2;ratioP2;P2;SDS_P1;SDS_P2;PMS_P1;PMS_P2;Temp;Humidity;BMP_temperature;BMP_pressure;BME280_temperature;BME280_humidity;BME280_pressure;Samples;Min_cycle;Max_cycle;Signal;HPM_P1;HPM_P2
2023/03/14 00:02:21;;;;;;;;;;;12.90;90.00;;;;;;5097241;28;20442;-68
2023/03/14 00:04:47;;;;;;;;;;;12.90;90.00;;;;;;5097274;28;19928;-72
2023/03/14 00:07:14;;;;;;;;;;;12.90;90.00;;;;;;5092226;27;19928;-70
2023/03/14 00:09:40;;;;;;;;;;;12.90;89.80;;;;;;5096169;28;20357;-70
2023/03/14 00:12:07;;;;;;;;;;;12.90;89.80;;;;;;5096669;28;20480;-73
2023/03/14 00:14:35;;;;;;;;;;;12.90;89.90;;;;;;5093479;28;20437;-73
2023/03/14 00:17:01;;;;;;;;;;;12.90;89.70;;;;;;5097587;28;19928;-72
2023/03/14 00:19:28;;;;;;;;;;;12.80;89.50;;;;;;5094423;28;19928;-74
2023/03/14 00:21:55;;;;;;;;;;;12.80;89.50;;;;;;5096476;28;19932;-70
2023/03/14 00:24:21;;;;;;;;;;;12.80;89.50;;;;;;5095663;28;19943;-69
2023/03/14 00:26:48;;;;;;;;;;;12.80;89.60;;;;;;5100508;27;19927;-69
2023/03/14 00:29:14;;;;;;;;;;;12.80;89.60;;;;;;5094180;28;20522;-72
2023/03/14 00:31:42;;;;;;;;;;;12.80;89.40;;;;;;5096938;28;19931;-73
2023/03/14 00:34:08;;;;;;;;;;;12.80;89.40;;;;;;5097091;28;19980;-71
2023/03/14 00:36:35;;;;;;;;;;;12.80;89.60;;;;;;5096595;28;20301;-72
2023/03/14 00:39:02;;;;;;;;;;;12.70;89.70;;;;;;5100056;28;19947;-72
2023/03/14 00:41:28;;;;;;;;;;;12.80;90.20;;;;;;5097799;28;20278;-71
2023/03/14 00:43:55;;;;;;;;;;;12.80;89.70;;;;;;5091985;28;20416;-69
2023/03/14 00:46:21;;;;;;;;;;;12.70;89.80;;;;;;5099885;28;19936;-69
2023/03/14 00:48:49;;;;;;;;;;;12.80;89.90;;;;;;5099919;27;19928;-72
2023/03/14 00:51:16;;;;;;;;;;;12.70;89.80;;;;;;5099442;28;20406;-69
2023/03/14 00:53:43;;;;;;;;;;;12.70;89.90;;;;;;5088785;28;19981;-72
2023/03/14 00:56:10;;;;;;;;;;;12.70;90.00;;;;;;5093962;28;20316;-72
2023/03/14 00:58:37;;;;;;;;;;;12.70;90.00;;;;;;5092278;28;19932;-69
2023/03/14 01:01:06;;;;;;;;;;;12.70;90.00;;;;;;5098587;28;19931;-70
2023/03/14 01:03:32;;;;;;;;;;;12.70;90.00;;;;;;5096133;28;20381;-72
2023/03/14 01:06:08;;;;;;;;;;;12.70;90.00;;;;;;5090735;28;19928;-71
2023/03/14 01:08:35;;;;;;;;;;;12.60;89.90;;;;;;5094399;28;20020;-71
2023/03/14 01:11:05;;;;;;;;;;;12.60;90.00;;;;;;5095039;28;20001;-72
2023/03/14 01:13:31;;;;;;;;;;;12.70;90.00;;;;;;5096049;28;19928;-73
2023/03/14 01:16:01;;;;;;;;;;;12.70;90.00;;;;;;5090716;28;20676;-70
2023/03/14 01:18:28;;;;;;;;;;;12.60;90.00;;;;;;5092363;28;19931;-71
2023/03/14 01:20:54;;;;;;;;;;;12.60;90.00;;;;;;5089530;28;19928;-67
2023/03/14 01:23:22;;;;;;;;;;;12.60;90.00;;;;;;5093815;28;19927;-70
2023/03/14 01:25:49;;;;;;;;;;;12.60;90.00;;;;;;5088402;28;19932;-68
2023/03/14 01:28:15;;;;;;;;;;;12.60;90.00;;;;;;5089907;28;19935;-70
2023/03/14 01:30:42;;;;;;;;;;;12.60;90.00;;;;;;5088005;28;20393;-70
2023/03/14 01:33:09;;;;;;;;;;;12.60;90.00;;;;;;5101569;28;19936;-72
2023/03/14 01:35:35;;;;;;;;;;;12.60;90.00;;;;;;5098864;28;19932;-70
2023/03/14 01:38:02;;;;;;;;;;;12.60;90.00;;;;;;5098604;28;20096;-73
2023/03/14 01:40:30;;;;;;;;;;;12.50;90.00;;;;;;5099525;28;19928;-68
2023/03/14 01:42:57;;;;;;;;;;;12.50;90.00;;;;;;5100602;28;19980;-71
2023/03/14 01:45:42;;;;;;;;;;;12.50;90.00;;;;;;5100761;27;19935;-70
2023/03/14 01:48:09;;;;;;;;;;;12.50;90.00;;;;;;5102133;28;19928;-70
2023/03/14 01:50:35;;;;;;;;;;;12.50;90.10;;;;;;5091543;28;19945;-70
2023/03/14 01:53:02;;;;;;;;;;;12.50;90.10;;;;;;5100274;28;20332;-72
2023/03/14 01:55:30;;;;;;;;;;;12.40;90.10;;;;;;5098093;28;19932;-71
2023/03/14 01:57:57;;;;;;;;;;;12.40;90.10;;;;;;5100589;28;19928;-68
2023/03/14 02:00:24;;;;;;;;;;;12.50;90.20;;;;;;5100470;27;19935;-68
2023/03/14 02:02:52;;;;;;;;;;;12.50;90.20;;;;;;5102272;28;19932;-70
2023/03/14 02:05:20;;;;;;;;;;;12.40;90.30;;;;;;5104749;27;19927;-68
2023/03/14 02:07:50;;;;;;;;;;;12.50;90.40;;;;;;5102745;27;22643;-68
2023/03/14 02:10:23;;;;;;;;;;;12.40;90.40;;;;;;5100054;28;20046;-70
2023/03/14 02:12:52;;;;;;;;;;;12.40;90.50;;;;;;5096966;27;19928;-70
2023/03/14 02:15:18;;;;;;;;;;;12.40;90.50;;;;;;5100311;27;19993;-68
2023/03/14 02:17:45;;;;;;;;;;;12.40;90.60;;;;;;5099833;27;19927;-69
2023/03/14 02:20:22;;;;;;;;;;;12.40;90.60;;;;;;5097746;28;20745;-69
2023/03/14 02:22:48;;;;;;;;;;;12.40;90.70;;;;;;5099094;27;19935;-68
2023/03/14 02:25:18;;;;;;;;;;;12.40;90.80;;;;;;5106693;27;19928;-68
2023/03/14 02:27:47;;;;;;;;;;;12.30;90.80;;;;;;5107151;27;19943;-71
2023/03/14 02:30:15;;;;;;;;;;;12.30;90.80;;;;;;5102960;27;19928;-72
2023/03/14 02:32:44;;;;;;;;;;;12.30;90.80;;;;;;5097265;28;20363;-71
2023/03/14 02:35:12;;;;;;;;;;;12.30;90.90;;;;;;5100427;27;19972;-72
2023/03/14 02:37:41;;;;;;;;;;;12.30;90.90;;;;;;5102110;28;19931;-68
2023/03/14 02:40:09;;;;;;;;;;;12.30;90.90;;;;;;5095891;27;19955;-69
2023/03/14 02:42:35;;;;;;;;;;;12.20;90.80;;;;;;5098174;27;19939;-72
2023/03/14 02:45:28;;;;;;;;;;;12.20;90.80;;;;;;5096136;28;19973;-69
2023/03/14 02:47:58;;;;;;;;;;;12.10;90.80;;;;;;5106035;27;19931;-68
2023/03/14 02:50:27;;;;;;;;;;;12.20;90.80;;;;;;5096387;27;19935;-69
2023/03/14 02:52:53;;;;;;;;;;;12.20;90.90;;;;;;5094813;27;20323;-69
2023/03/14 02:55:21;;;;;;;;;;;12.20;90.80;;;;;;5095758;28;19927;-72
2023/03/14 02:57:47;;;;;;;;;;;12.10;90.70;;;;;;5099092;27;19927;-67
2023/03/14 03:00:15;;;;;;;;;;;12.10;90.70;;;;;;5095190;27;19928;-69
2023/03/14 03:02:42;;;;;;;;;;;12.10;90.70;;;;;;5091791;28;20003;-73
2023/03/14 03:05:09;;;;;;;;;;;12.10;90.70;;;;;;5094783;28;19928;-69
2023/03/14 03:07:35;;;;;;;;;;;12.00;90.70;;;;;;5094659;27;19928;-72
2023/03/14 03:10:02;;;;;;;;;;;12.00;90.70;;;;;;5098350;28;19932;-69
2023/03/14 03:12:29;;;;;;;;;;;12.10;90.70;;;;;;5092705;27;19931;-72
2023/03/14 03:14:55;;;;;;;;;;;12.00;90.70;;;;;;5099018;27;20674;-72
2023/03/14 03:17:23;;;;;;;;;;;12.00;90.60;;;;;;5072433;28;19928;-69
2023/03/14 03:19:50;;;;;;;;;;;12.00;90.50;;;;;;5072603;28;19932;-71
2023/03/14 03:22:16;;;;;;;;;;;12.00;90.40;;;;;;5070809;28;19948;-71
2023/03/14 03:24:44;;;;;;;;;;;12.00;90.40;;;;;;5075113;28;19970;-72
2023/03/14 03:27:10;;;;;;;;;;;12.00;90.40;;;;;;5075986;28;19932;-73
2023/03/14 03:29:37;;;;;;;;;;;12.00;90.30;;;;;;5071169;28;19932;-71
2023/03/14 03:32:03;;;;;;;;;;;11.90;90.30;;;;;;5092476;28;20697;-67
2023/03/14 03:34:31;;;;;;;;;;;11.90;90.30;;;;;;5099495;28;19931;-70
2023/03/14 03:36:58;;;;;;;;;;;11.90;90.30;;;;;;5103150;28;19931;-70
2023/03/14 03:39:24;;;;;;;;;;;11.90;90.30;;;;;;5097128;27;19935;-70
2023/03/14 03:41:51;;;;;;;;;;;12.00;90.30;;;;;;5095448;28;19981;-70
2023/03/14 03:44:18;;;;;;;;;;;11.90;90.20;;;;;;5097199;28;19932;-68
2023/03/14 03:46:44;;;;;;;;;;;11.80;90.00;;;;;;5102547;27;19932;-69
2023/03/14 03:49:11;;;;;;;;;;;11.90;90.00;;;;;;5099963;27;19984;-72
2023/03/14 03:51:40;;;;;;;;;;;11.90;89.80;;;;;;5097499;27;19927;-73
2023/03/14 03:54:06;;;;;;;;;;;11.80;89.60;;;;;;5103272;28;19981;-72
2023/03/14 03:56:33;;;;;;;;;;;11.80;89.60;;;;;;5097541;28;19932;-71
2023/03/14 03:58:59;;;;;;;;;;;11.80;89.50;;;;;;5092464;28;20588;-73
2023/03/14 04:01:26;;;;;;;;;;;11.80;89.50;;;;;;5091848;28;19945;-69
2023/03/14 04:03:52;;;;;;;;;;;11.80;89.40;;;;;;5100788;28;19988;-71
2023/03/14 04:06:19;;;;;;;;;;;11.80;89.20;;;;;;5093313;28;19996;-68
2023/03/14 04:08:47;;;;;;;;;;;11.80;89.10;;;;;;5095256;27;19940;-70
2023/03/14 04:11:13;;;;;;;;;;;11.80;89.00;;;;;;5100327;28;19980;-71
2023/03/14 04:13:40;;;;;;;;;;;11.80;88.90;;;;;;5104401;28;19928;-70
2023/03/14 04:16:10;;;;;;;;;;;11.70;88.60;;;;;;5094087;28;19928;-72
2023/03/14 04:18:37;;;;;;;;;;;11.80;88.60;;;;;;5091733;27;19928;-72
2023/03/14 04:21:03;;;;;;;;;;;11.70;88.30;;;;;;5094977;28;19981;-70
2023/03/14 04:23:30;;;;;;;;;;;11.70;88.20;;;;;;5097367;28;19927;-73
2023/03/14 04:25:58;;;;;;;;;;;11.80;87.80;;;;;;5099625;28;19932;-69
2023/03/14 04:28:25;;;;;;;;;;;11.70;87.60;;;;;;5094567;28;19953;-70
2023/03/14 04:30:51;;;;;;;;;;;11.70;87.50;;;;;;5100207;28;20325;-70
2023/03/14 04:33:18;;;;;;;;;;;11.70;87.40;;;;;;5097520;27;20366;-69
2023/03/14 04:35:45;;;;;;;;;;;11.70;87.00;;;;;;5100667;28;19928;-70
2023/03/14 04:38:11;;;;;;;;;;;11.70;86.90;;;;;;5101558;28;19927;-70
2023/03/14 04:40:38;;;;;;;;;;;11.70;86.80;;;;;;5098817;28;19932;-70
2023/03/14 04:43:06;;;;;;;;;;;11.70;86.70;;;;;;5094943;27;19980;-69
2023/03/14 04:45:32;;;;;;;;;;;11.60;86.40;;;;;;5095972;28;19934;-69
2023/03/14 04:47:59;;;;;;;;;;;11.60;86.40;;;;;;5097335;27;20434;-72
2023/03/14 04:50:25;;;;;;;;;;;11.60;86.20;;;;;;5094442;28;19936;-70
2023/03/14 04:52:52;;;;;;;;;;;11.70;86.20;;;;;;5096228;27;19981;-69
2023/03/14 04:55:18;;;;;;;;;;;11.60;86.00;;;;;;5096732;28;20320;-67
2023/03/14 04:57:45;;;;;;;;;;;11.60;85.50;;;;;;5089880;28;19977;-68
2023/03/14 05:00:14;;;;;;;;;;;11.50;85.40;;;;;;5098414;28;19995;-72
2023/03/14 05:02:40;;;;;;;;;;;11.50;85.50;;;;;;5095644;28;19936;-70
2023/03/14 05:05:07;;;;;;;;;;;11.60;85.50;;;;;;5099765;28;19997;-72
2023/03/14 05:07:34;;;;;;;;;;;11.50;85.40;;;;;;5099342;28;19931;-71
2023/03/14 05:10:00;;;;;;;;;;;11.60;85.60;;;;;;5093730;28;19932;-69
2023/03/14 05:12:27;;;;;;;;;;;11.50;85.60;;;;;;5099732;28;19928;-71
2023/03/14 05:14:53;;;;;;;;;;;11.50;85.60;;;;;;5090650;28;19932;-70
2023/03/14 05:17:21;;;;;;;;;;;11.50;85.50;;;;;;5091536;28;19928;-68
2023/03/14 05:19:48;;;;;;;;;;;11.50;85.60;;;;;;5092456;28;19923;-69
2023/03/14 05:22:14;;;;;;;;;;;11.50;85.60;;;;;;5091084;28;19935;-68
2023/03/14 05:24:41;;;;;;;;;;;11.50;85.50;;;;;;5090649;28;20676;-69
2023/03/14 05:27:07;;;;;;;;;;;11.50;85.50;;;;;;5096476;28;19934;-71
2023/03/14 05:29:34;;;;;;;;;;;11.50;85.50;;;;;;5091914;28;19934;-73
2023/03/14 05:32:00;;;;;;;;;;;11.50;85.40;;;;;;5091005;28;19928;-72
2023/03/14 05:34:28;;;;;;;;;;;11.50;85.40;;;;;;5096165;28;19928;-70
2023/03/14 05:36:56;;;;;;;;;;;11.50;85.50;;;;;;5092542;28;19934;-72
2023/03/14 05:39:22;;;;;;;;;;;11.50;85.50;;;;;;5093520;28;20750;-69
2023/03/14 05:41:49;;;;;;;;;;;11.50;85.60;;;;;;5102179;28;20489;-71
2023/03/14 05:44:15;;;;;;;;;;;11.50;85.70;;;;;;5093077;28;19928;-69
2023/03/14 05:46:42;;;;;;;;;;;11.50;85.80;;;;;;5096379;28;20450;-73
2023/03/14 05:49:08;;;;;;;;;;;11.50;85.90;;;;;;5097243;28;19969;-68
2023/03/14 05:51:36;;;;;;;;;;;11.50;86.00;;;;;;5091702;28;19927;-74
2023/03/14 05:54:03;;;;;;;;;;;11.50;86.00;;;;;;5089675;28;19939;-72
2023/03/14 05:56:29;;;;;;;;;;;11.50;84.00;;;;;;5094939;28;19973;-75
2023/03/14 05:58:56;;;;;;;;;;;11.50;84.30;;;;;;5093232;28;19935;-73
2023/03/14 06:01:22;;;;;;;;;;;11.40;84.60;;;;;;5096665;28;20367;-71
2023/03/14 06:03:49;;;;;;;;;;;11.40;84.90;;;;;;5091517;28;19936;-70
2023/03/14 06:06:16;;;;;;;;;;;11.40;85.10;;;;;;5095320;28;19928;-71
2023/03/14 06:08:44;;;;;;;;;;;11.40;85.40;;;;;;5091155;28;19932;-73
2023/03/14 06:11:10;;;;;;;;;;;11.40;85.60;;;;;;5091049;28;19927;-72
2023/03/14 06:13:37;;;;;;;;;;;11.30;85.70;;;;;;5101429;28;19927;-74
2023/03/14 06:16:04;;;;;;;;;;;11.30;85.90;;;;;;5094954;28;19932;-72
2023/03/14 06:18:31;;;;;;;;;;;11.30;86.00;;;;;;5097276;28;19951;-70
2023/03/14 06:20:58;;;;;;;;;;;11.30;86.10;;;;;;5100656;27;19935;-72
2023/03/14 06:23:25;;;;;;;;;;;11.20;86.10;;;;;;5102062;28;20465;-72
2023/03/14 06:25:53;;;;;;;;;;;11.20;86.10;;;;;;5103172;27;20026;-71
2023/03/14 06:28:19;;;;;;;;;;;11.20;86.20;;;;;;5101379;27;19939;-68
2023/03/14 06:30:46;;;;;;;;;;;11.20;86.20;;;;;;5103319;27;19928;-68
2023/03/14 06:33:12;;;;;;;;;;;11.20;86.40;;;;;;5096002;28;20442;-73
2023/03/14 06:35:39;;;;;;;;;;;11.20;86.30;;;;;;5102069;27;19936;-70
2023/03/14 06:38:05;;;;;;;;;;;11.20;86.30;;;;;;5103297;27;19927;-73
2023/03/14 06:40:32;;;;;;;;;;;11.20;86.40;;;;;;5109505;27;20363;-72
2023/03/14 06:43:00;;;;;;;;;;;11.20;86.30;;;;;;5100129;28;20560;-72
2023/03/14 06:45:26;;;;;;;;;;;11.20;86.30;;;;;;5097904;28;20351;-68
2023/03/14 06:47:53;;;;;;;;;;;11.20;87.00;;;;;;5101454;27;19932;-70
2023/03/14 06:50:21;;;;;;;;;;;11.20;86.40;;;;;;5092870;28;19935;-68
2023/03/14 06:52:48;;;;;;;;;;;11.20;86.40;;;;;;5099714;27;20001;-72
2023/03/14 06:55:15;;;;;;;;;;;11.20;86.60;;;;;;5101421;27;19928;-70
2023/03/14 06:57:43;;;;;;;;;;;11.20;86.70;;;;;;5094803;28;19932;-70
2023/03/14 07:00:12;;;;;;;;;;;11.20;86.70;;;;;;5105466;27;19928;-70
2023/03/14 07:02:39;;;;;;;;;;;11.20;86.80;;;;;;5101283;27;19969;-71
2023/03/14 07:05:06;;;;;;;;;;;11.20;86.80;;;;;;5099911;27;20413;-71
2023/03/14 07:07:32;;;;;;;;;;;11.10;86.80;;;;;;5099657;27;19932;-72
2023/03/14 07:09:59;;;;;;;;;;;11.20;86.90;;;;;;5104406;27;19928;-71
2023/03/14 07:12:25;;;;;;;;;;;11.10;86.80;;;;;;5097486;27;19928;-68
2023/03/14 07:14:52;;;;;;;;;;;11.20;87.10;;;;;;5098093;27;19936;-70
2023/03/14 07:17:20;;;;;;;;;;;11.10;87.10;;;;;;5103452;27;19950;-70
2023/03/14 07:19:46;;;;;;;;;;;11.20;87.20;;;;;;5102278;27;20431;-69
2023/03/14 07:22:13;;;;;;;;;;;11.20;87.20;;;;;;5097083;27;20038;-71
2023/03/14 07:24:39;;;;;;;;;;;11.20;87.20;;;;;;5101243;27;19935;-71
2023/03/14 07:27:06;;;;;;;;;;;11.20;87.40;;;;;;5100347;28;19928;-72
2023/03/14 07:29:32;;;;;;;;;;;11.20;87.50;;;;;;5097975;27;20352;-71
2023/03/14 07:31:59;;;;;;;;;;;11.10;87.40;;;;;;5102260;27;19990;-70
2023/03/14 07:34:27;;;;;;;;;;;11.10;87.40;;;;;;5102902;28;19932;-70
2023/03/14 07:36:53;;;;;;;;;;;11.10;87.40;;;;;;5105838;27;19928;-69
2023/03/14 07:39:20;;;;;;;;;;;11.10;87.40;;;;;;5103178;28;20660;-70
2023/03/14 07:41:46;;;;;;;;;;;11.10;87.50;;;;;;5101806;27;19931;-71
2023/03/14 07:44:13;;;;;;;;;;;11.10;87.50;;;;;;5096880;28;19927;-74
2023/03/14 07:46:39;;;;;;;;;;;11.10;87.60;;;;;;5098587;28;20286;-70
2023/03/14 07:49:06;;;;;;;;;;;11.10;87.60;;;;;;5102122;28;19928;-71
2023/03/14 07:51:34;;;;;;;;;;;11.10;87.70;;;;;;5100603;27;20447;-71
2023/03/14 07:54:00;;;;;;;;;;;11.20;87.70;;;;;;5101654;28;20012;-71
2023/03/14 07:56:27;;;;;;;;;;;11.20;87.70;;;;;;5098893;28;19928;-67
2023/03/14 07:58:53;;;;;;;;;;;11.20;87.60;;;;;;5096600;27;19981;-72
2023/03/14 08:01:20;;;;;;;;;;;11.20;87.60;;;;;;5095329;27;19928;-68
2023/03/14 08:03:46;;;;;;;;;;;11.20;87.60;;;;;;5099446;28;20412;-70
2023/03/14 08:06:13;;;;;;;;;;;11.20;87.60;;;;;;5097323;28;19931;-71
2023/03/14 08:08:41;;;;;;;;;;;11.20;87.50;;;;;;5097421;28;19928;-70
2023/03/14 08:11:09;;;;;;;;;;;11.20;87.60;;;;;;5107003;27;19928;-69
2023/03/14 08:13:36;;;;;;;;;;;11.20;87.60;;;;;;5104802;27;20031;-71
2023/03/14 08:16:02;;;;;;;;;;;11.20;87.80;;;;;;5094445;27;19980;-72
2023/03/14 08:18:29;;;;;;;;;;;11.30;87.90;;;;;;5098163;28;19993;-69
2023/03/14 08:20:55;;;;;;;;;;;11.30;87.80;;;;;;5108261;27;19932;-70
2023/03/14 08:23:22;;;;;;;;;;;11.40;87.80;;;;;;5100182;27;19928;-69
2023/03/14 08:25:50;;;;;;;;;;;11.40;87.80;;;;;;5102877;27;19931;-70
2023/03/14 08:28:17;;;;;;;;;;;11.40;87.80;;;;;;5099114;27;20036;-70
2023/03/14 08:30:44;;;;;;;;;;;11.40;87.60;;;;;;5103257;27;19935;-73
2023/03/14 08:33:10;;;;;;;;;;;11.40;87.50;;;;;;5094035;28;19928;-69
2023/03/14 08:35:38;;;;;;;;;;;11.40;87.40;;;;;;5104434;28;19953;-72
2023/03/14 08:38:04;;;;;;;;;;;11.40;88.10;;;;;;5097939;28;19940;-72
2023/03/14 08:40:31;;;;;;;;;;;11.40;87.20;;;;;;5097546;28;19934;-72
2023/03/14 08:42:59;;;;;;;;;;;11.40;87.20;;;;;;5095655;28;19935;-73
2023/03/14 08:45:25;;;;;;;;;;;11.40;87.20;;;;;;5095257;28;19939;-69
2023/03/14 08:47:52;;;;;;;;;;;11.50;87.30;;;;;;5096257;28;19927;-72
2023/03/14 08:50:19;;;;;;;;;;;11.50;87.40;;;;;;5096695;28;19935;-69
2023/03/14 08:52:45;;;;;;;;;;;11.50;87.60;;;;;;5100236;28;19931;-69
2023/03/14 08:55:12;;;;;;;;;;;11.50;87.70;;;;;;5092880;28;19936;-71
2023/03/14 08:57:38;;;;;;;;;;;11.50;87.90;;;;;;5098907;28;19932;-70
2023/03/14 09:00:11;;;;;;;;;;;11.50;87.90;;;;;;5102571;28;19931;-70
2023/03/14 09:02:38;;;;;;;;;;;11.50;88.10;;;;;;5094651;27;19932;-70
2023/03/14 09:05:05;;;;;;;;;;;11.50;88.10;;;;;;5099474;28;20772;-70
2023/03/14 09:07:32;;;;;;;;;;;11.50;88.10;;;;;;5102743;28;19977;-70
2023/03/14 09:09:58;;;;;;;;;;;11.50;88.10;;;;;;5089998;28;20465;-71
2023/03/14 09:12:25;;;;;;;;;;;11.50;88.00;;;;;;5103221;28;19981;-71
2023/03/14 09:14:51;;;;;;;;;;;11.50;87.90;;;;;;5098041;28;19980;-70
2023/03/14 09:17:19;;;;;;;;;;;11.60;87.70;;;;;;5096055;27;19935;-71
2023/03/14 09:19:46;;;;;;;;;;;11.50;87.50;;;;;;5096130;28;19932;-72
2023/03/14 09:22:12;;;;;;;;;;;11.50;87.50;;;;;;5098120;28;20004;-72
2023/03/14 09:24:39;;;;;;;;;;;11.50;87.60;;;;;;5091102;28;19928;-71
2023/03/14 09:27:05;;;;;;;;;;;11.50;87.70;;;;;;5101291;28;19931;-71
2023/03/14 09:29:32;;;;;;;;;;;11.50;87.70;;;;;;5099696;28;19939;-72
2023/03/14 09:31:58;;;;;;;;;;;11.50;87.80;;;;;;5095365;28;19932;-73
2023/03/14 09:34:26;;;;;;;;;;;11.50;87.80;;;;;;5102037;28;20804;-71
2023/03/14 09:36:53;;;;;;;;;;;11.60;87.80;;;;;;5091253;28;19928;-71
2023/03/14 09:39:19;;;;;;;;;;;11.60;87.80;;;;;;5099879;28;20320;-68
2023/03/14 09:41:47;;;;;;;;;;;11.60;87.80;;;;;;5090894;28;19928;-71
2023/03/14 09:44:15;;;;;;;;;;;11.60;87.80;;;;;;5096362;28;20001;-69
2023/03/14 09:46:43;;;;;;;;;;;11.60;87.80;;;;;;5096299;27;19932;-73
2023/03/14 09:49:11;;;;;;;;;;;11.60;87.80;;;;;;5099743;28;19928;-69
2023/03/14 09:51:40;;;;;;;;;;;11.60;87.80;;;;;;5098067;28;19928;-69
2023/03/14 09:54:13;;;;;;;;;;;11.60;87.70;;;;;;5092533;28;19953;-71
2023/03/14 09:56:39;;;;;;;;;;;11.60;87.80;;;;;;5104236;28;19981;-71
2023/03/14 09:59:07;;;;;;;;;;;11.70;87.90;;;;;;5102992;28;19945;-70
2023/03/14 10:01:35;;;;;;;;;;;11.60;87.80;;;;;;5086664;28;19928;-72
2023/03/14 10:04:03;;;;;;;;;;;11.60;87.70;;;;;;5081404;28;20354;-69
2023/03/14 10:06:30;;;;;;;;;;;11.60;87.70;;;;;;5085295;28;19981;-71
2023/03/14 10:08:58;;;;;;;;;;;11.70;87.70;;;;;;5079246;28;19928;-69
2023/03/14 10:11:25;;;;;;;;;;;11.70;87.70;;;;;;5082863;28;19935;-70
2023/03/14 10:14:03;;;;;;;;;;;11.70;87.80;;;;;;5076419;28;19928;-70
2023/03/14 10:16:30;;;;;;;;;;;11.70;87.90;;;;;;5095444;28;19974;-70
2023/03/14 10:19:02;;;;;;;;;;;11.70;88.00;;;;;;5106228;28;19949;-71
2023/03/14 10:21:29;;;;;;;;;;;11.70;88.20;;;;;;5105098;28;19928;-71
2023/03/14 10:24:07;;;;;;;;;;;11.70;88.30;;;;;;5093149;28;19932;-72
2023/03/14 10:26:35;;;;;;;;;;;11.70;88.60;;;;;;5094622;27;19928;-70
2023/03/14 10:29:03;;;;;;;;;;;11.70;89.00;;;;;;5097188;28;19936;-73
2023/03/14 10:31:46;;;;;;;;;;;11.70;89.60;;;;;;5096697;28;19931;-72
2023/03/14 10:34:16;;;;;;;;;;;11.70;90.10;;;;;;5093496;27;19951;-69
2023/03/14 10:36:43;;;;;;;;;;;11.70;90.30;;;;;;5098752;28;19963;-71
2023/03/14 10:39:24;;;;;;;;;;;11.70;90.40;;;;;;5105292;27;20000;-71
2023/03/14 10:41:53;;;;;;;;;;;11.70;90.60;;;;;;5097711;27;19927;-70
2023/03/14 10:44:22;;;;;;;;;;;11.70;90.70;;;;;;5095546;28;19928;-68
2023/03/14 10:46:56;;;;;;;;;;;11.60;90.80;;;;;;5096575;28;20397;-71
2023/03/14 10:49:28;;;;;;;;;;;11.60;91.00;;;;;;5103702;28;19935;-68
2023/03/14 10:51:54;;;;;;;;;;;11.60;91.20;;;;;;5097907;27;20008;-72
2023/03/14 10:54:23;;;;;;;;;;;11.60;91.50;;;;;;5103404;28;20378;-68
2023/03/14 10:56:58;;;;;;;;;;;11.60;91.70;;;;;;5097063;27;19931;-70
2023/03/14 10:59:24;;;;;;;;;;;11.60;91.90;;;;;;5095746;27;19935;-70
2023/03/14 11:01:55;;;;;;;;;;;11.50;92.00;;;;;;5092788;28;19935;-71
2023/03/14 11:04:31;;;;;;;;;;;11.50;92.10;;;;;;5096048;27;19978;-69
2023/03/14 11:07:04;;;;;;;;;;;11.50;92.10;;;;;;5095985;27;19931;-68
2023/03/14 11:09:33;;;;;;;;;;;11.50;92.30;;;;;;5095123;27;19935;-71
2023/03/14 11:12:04;;;;;;;;;;;11.50;92.40;;;;;;5103966;27;20389;-70
2023/03/14 11:14:33;;;;;;;;;;;11.50;92.50;;;;;;5104915;27;19924;-72
2023/03/14 11:17:02;;;;;;;;;;;11.40;92.70;;;;;;5100727;27;19927;-72
2023/03/14 11:19:43;;;;;;;;;;;11.40;92.80;;;;;;5104512;27;19931;-68
2023/03/14 11:22:14;;;;;;;;;;;11.40;93.00;;;;;;5099921;28;20022;-71
2023/03/14 11:24:45;;;;;;;;;;;11.40;93.20;;;;;;5096818;27;20417;-71
2023/03/14 11:27:17;;;;;;;;;;;11.40;93.30;;;;;;5105090;28;19935;-71
2023/03/14 11:29:48;;;;;;;;;;;11.40;93.30;;;;;;5097638;28;20386;-74
2023/03/14 11:32:18;;;;;;;;;;;11.30;93.40;;;;;;5101212;27;19932;-68
2023/03/14 11:34:49;;;;;;;;;;;11.30;93.50;;;;;;5101709;28;19928;-69
2023/03/14 11:37:22;;;;;;;;;;;11.30;93.60;;;;;;5101284;28;19936;-68
2023/03/14 11:39:53;;;;;;;;;;;11.30;93.80;;;;;;5099406;28;19927;-70
2023/03/14 11:42:21;;;;;;;;;;;11.30;93.90;;;;;;5103575;27;19927;-67
2023/03/14 11:44:49;;;;;;;;;;;11.30;94.10;;;;;;5104208;28;19928;-70
2023/03/14 11:47:19;;;;;;;;;;;11.30;94.30;;;;;;5101638;27;19989;-69
2023/03/14 11:49:48;;;;;;;;;;;11.20;94.30;;;;;;5103620;27;19928;-71
2023/03/14 11:52:17;;;;;;;;;;;11.20;94.40;;;;;;5095529;28;20006;-67
2023/03/14 11:54:46;;;;;;;;;;;11.20;94.40;;;;;;5098106;27;19928;-71
2023/03/14 11:57:14;;;;;;;;;;;11.20;94.30;;;;;;5098491;27;20022;-71
2023/03/14 11:59:50;;;;;;;;;;;11.20;94.40;;;;;;5095762;28;19932;-70
2023/03/14 12:02:21;;;;;;;;;;;11.10;94.40;;;;;;5099882;27;20019;-69
2023/03/14 12:04:54;;;;;;;;;;;11.10;94.30;;;;;;5100775;28;20412;-71
2023/03/14 12:07:23;;;;;;;;;;;11.10;94.10;;;;;;5097202;27;19931;-68
2023/03/14 12:09:51;;;;;;;;;;;11.10;93.90;;;;;;5100549;27;19931;-69
2023/03/14 12:12:20;;;;;;;;;;;11.10;93.60;;;;;;5095563;28;19928;-69
2023/03/14 12:14:52;;;;;;;;;;;11.00;93.20;;;;;;5100079;28;19984;-68
2023/03/14 12:17:20;;;;;;;;;;;11.00;93.00;;;;;;5071236;28;19974;-70
2023/03/14 12:19:47;;;;;;;;;;;11.00;92.80;;;;;;5077853;28;20585;-71
2023/03/14 12:22:30;;;;;;;;;;;10.90;92.60;;;;;;5070348;28;19928;-71
2023/03/14 12:24:59;;;;;;;;;;;10.90;92.40;;;;;;5072405;28;19928;-68
2023/03/14 12:27:43;;;;;;;;;;;10.90;92.20;;;;;;5076327;28;20211;-70
2023/03/14 12:30:16;;;;;;;;;;;10.90;92.00;;;;;;5075257;28;20401;-71
2023/03/14 12:32:42;;;;;;;;;;;10.80;91.70;;;;;;5100860;28;19935;-70
2023/03/14 12:35:24;;;;;;;;;;;10.80;91.50;;;;;;5100522;28;19928;-68
2023/03/14 12:37:52;;;;;;;;;;;10.80;91.30;;;;;;5097825;28;19927;-69
2023/03/14 12:40:21;;;;;;;;;;;10.70;91.00;;;;;;5096490;28;19989;-69
2023/03/14 12:42:54;;;;;;;;;;;10.70;90.90;;;;;;5100454;28;19961;-70
2023/03/14 12:45:27;;;;;;;;;;;10.70;90.80;;;;;;5091506;28;19928;-68
2023/03/14 12:47:55;;;;;;;;;;;10.70;90.80;;;;;;5094782;28;19932;-70
2023/03/14 12:50:36;;;;;;;;;;;10.70;90.80;;;;;;5096340;28;20320;-69
2023/03/14 12:53:33;;;;;;;;;;;10.70;90.60;;;;;;5096523;27;19931;-73
2023/03/14 12:56:02;;;;;;;;;;;10.70;90.40;;;;;;5094116;28;19973;-71
2023/03/14 12:58:32;;;;;;;;;;;10.70;90.70;;;;;;5099485;28;20004;-68
2023/03/14 13:01:02;;;;;;;;;;;10.70;90.30;;;;;;5097252;28;19928;-68
2023/03/14 13:03:37;;;;;;;;;;;10.70;90.00;;;;;;5091659;28;19928;-72
2023/03/14 13:06:04;;;;;;;;;;;10.70;89.40;;;;;;5093574;27;19928;-70
2023/03/14 13:08:35;;;;;;;;;;;10.70;88.80;;;;;;5094088;28;20010;-69
2023/03/14 13:11:02;;;;;;;;;;;10.70;87.80;;;;;;5087392;27;19928;-72
2023/03/14 13:13:29;;;;;;;;;;;10.80;86.60;;;;;;5091040;28;19935;-68
2023/03/14 13:15:58;;;;;;;;;;;10.80;85.60;;;;;;5100675;28;19935;-69
2023/03/14 13:18:27;;;;;;;;;;;10.80;84.30;;;;;;5098430;28;19935;-68
2023/03/14 13:20:56;;;;;;;;;;;10.90;83.10;;;;;;5101703;28;19928;-69
2023/03/14 13:23:22;;;;;;;;;;;10.90;80.90;;;;;;5093045;28;19928;-68
2023/03/14 13:25:49;;;;;;;;;;;10.90;80.00;;;;;;5100278;28;20400;-69
2023/03/14 13:28:16;;;;;;;;;;;11.00;79.80;;;;;;5098895;28;19984;-68
2023/03/14 13:30:44;;;;;;;;;;;11.00;78.20;;;;;;5098586;27;19981;-70
2023/03/14 13:33:16;;;;;;;;;;;11.10;78.10;;;;;;5103624;28;20344;-70
2023/03/14 13:35:44;;;;;;;;;;;11.10;76.20;;;;;;5097447;28;19990;-70
2023/03/14 13:38:16;;;;;;;;;;;11.10;75.40;;;;;;5103932;28;19944;-69
2023/03/14 13:40:44;;;;;;;;;;;11.20;74.10;;;;;;5104180;28;19936;-70
2023/03/14 13:43:18;;;;;;;;;;;11.20;73.20;;;;;;5099170;27;20335;-71
2023/03/14 13:45:55;;;;;;;;;;;11.20;72.90;;;;;;5100009;27;19931;-70
2023/03/14 13:48:23;;;;;;;;;;;11.20;72.10;;;;;;5103641;27;20168;-71
2023/03/14 13:50:54;;;;;;;;;;;11.10;72.00;;;;;;5103584;27;19935;-68
2023/03/14 13:53:21;;;;;;;;;;;11.10;72.10;;;;;;5102400;28;19928;-68
2023/03/14 13:55:48;;;;;;;;;;;11.10;71.20;;;;;;5099609;27;19935;-72
2023/03/14 13:58:21;;;;;;;;;;;11.10;70.60;;;;;;5104913;28;19932;-69
2023/03/14 14:00:55;;;;;;;;;;;11.00;70.80;;;;;;5096814;28;19935;-67
2023/03/14 14:03:21;;;;;;;;;;;11.00;70.70;;;;;;5105227;27;19936;-68
2023/03/14 14:05:48;;;;;;;;;;;11.00;70.60;;;;;;5105738;28;19932;-69
2023/03/14 14:08:16;;;;;;;;;;;10.90;69.90;;;;;;5097694;27;19928;-67
2023/03/14 14:10:42;;;;;;;;;;;10.90;69.30;;;;;;5095985;28;19928;-70
2023/03/14 14:13:11;;;;;;;;;;;10.90;66.90;;;;;;5100637;28;19989;-69
2023/03/14 14:15:40;;;;;;;;;;;10.90;67.60;;;;;;5105321;27;19931;-71
2023/03/14 14:18:09;;;;;;;;;;;10.90;67.50;;;;;;5103576;28;19981;-71
2023/03/14 14:20:37;;;;;;;;;;;10.80;66.40;;;;;;5102986;28;20476;-72
2023/03/14 14:23:05;;;;;;;;;;;10.80;66.80;;;;;;5097186;27;19927;-71